createdAt,value
2023-04-15T00:02:14.926Z,100.00
2023-04-15T00:07:19.067Z,100.00
2023-04-15T00:12:22.329Z,100.00
2023-04-15T00:17:25.161Z,100.00
2023-04-15T00:22:31.257Z,100.00
2023-04-15T00:27:34.271Z,100.00
2023-04-15T00:32:36.988Z,100.00
2023-04-15T00:37:41.223Z,100.00
2023-04-15T00:42:44.903Z,100.00
2023-04-15T00:47:47.683Z,100.00
2023-04-15T00:52:52.427Z,100.00
2023-04-15T00:57:56.120Z,100.00
2023-04-15T01:08:03.717Z,100.00
2023-04-15T01:13:07.206Z,100.00
2023-04-15T01:18:10.084Z,100.00
2023-04-15T01:23:16.934Z,100.00
2023-04-15T01:28:21.383Z,100.00
2023-04-15T01:33:24.179Z,100.00
2023-04-15T01:38:28.779Z,100.00
2023-04-15T01:43:33.001Z,100.00
2023-04-15T01:48:35.831Z,100.00
2023-04-15T01:53:39.768Z,100.00
2023-04-15T01:58:44.415Z,100.00
2023-04-15T02:03:48.046Z,100.00
2023-04-15T02:08:51.642Z,100.00
2023-04-15T02:13:55.834Z,100.00
2023-04-15T02:18:58.835Z,100.00
2023-04-15T02:24:02.285Z,100.00
2023-04-15T02:29:06.506Z,100.00
2023-04-15T02:34:09.417Z,100.00
2023-04-15T02:39:14.525Z,100.00
2023-04-15T02:44:20.253Z,100.00
2023-04-15T02:49:25.174Z,100.00
2023-04-15T02:54:29.336Z,100.00
2023-04-15T02:59:33.927Z,100.00
2023-04-15T03:04:37.018Z,100.00
2023-04-15T03:09:41.299Z,100.00
2023-04-15T03:14:45.626Z,100.00
2023-04-15T03:19:48.433Z,100.00
2023-04-15T03:24:51.985Z,100.00
2023-04-15T03:29:56.767Z,100.00
2023-04-15T03:35:01.409Z,100.00
2023-04-15T03:40:04.347Z,100.00
2023-04-15T03:45:10.472Z,100.00
2023-04-15T03:50:13.284Z,100.00
2023-04-15T03:55:16.484Z,100.00
2023-04-15T04:00:20.804Z,100.00
2023-04-15T04:05:23.796Z,100.00
2023-04-15T04:10:26.544Z,100.00
2023-04-15T04:15:31.141Z,100.00
2023-04-15T04:20:34.481Z,100.00
2023-04-15T04:25:37.617Z,100.00
2023-04-15T04:30:42.087Z,100.00
2023-04-15T04:35:44.915Z,100.00
2023-04-15T04:40:47.699Z,100.00
2023-04-15T04:45:52.079Z,100.00
2023-04-15T04:50:55.044Z,100.00
2023-04-15T04:55:58.184Z,100.00
2023-04-15T05:01:03.035Z,100.00
2023-04-15T05:06:08.704Z,100.00
2023-04-15T05:11:11.434Z,100.00
2023-04-15T05:16:15.582Z,100.00
2023-04-15T05:21:20.036Z,100.00
2023-04-15T05:26:24.242Z,100.00
2023-04-15T05:31:28.522Z,100.00
2023-04-15T05:36:31.541Z,100.00
2023-04-15T05:41:34.550Z,100.00
2023-04-15T05:46:38.931Z,100.00
2023-04-15T05:51:41.746Z,100.00
2023-04-15T05:56:44.447Z,100.00
2023-04-15T06:01:48.648Z,100.00
2023-04-15T06:06:51.508Z,100.00
2023-04-15T06:11:54.606Z,100.00
2023-04-15T06:16:59.012Z,100.00
2023-04-15T06:22:01.872Z,100.00
2023-04-15T06:27:05.567Z,100.00
2023-04-15T06:32:09.928Z,100.00
2023-04-15T06:37:16.236Z,100.00
2023-04-15T06:42:19.196Z,100.00
2023-04-15T06:47:23.325Z,100.00
2023-04-15T06:52:26.233Z,100.00
2023-04-15T06:57:29.615Z,100.00
2023-04-15T07:02:35.742Z,100.00
2023-04-15T07:07:39.055Z,100.00
2023-04-15T07:12:42.252Z,100.00
2023-04-15T07:17:47.141Z,100.00
2023-04-15T07:22:49.899Z,100.00
2023-04-15T07:27:54.618Z,100.00
2023-04-15T07:32:59.812Z,100.00
2023-04-15T07:38:02.743Z,100.00
2023-04-15T07:43:05.583Z,100.00
2023-04-15T07:48:09.716Z,100.00
2023-04-15T07:53:12.465Z,100.00
2023-04-15T07:58:15.340Z,100.00
2023-04-15T08:03:19.612Z,100.00
2023-04-15T08:08:22.534Z,100.00
2023-04-15T08:13:25.421Z,100.00
2023-04-15T08:18:31.620Z,77.75
2023-04-15T08:23:34.604Z,66.48
2023-04-15T08:28:39.540Z,66.95
2023-04-15T08:33:44.311Z,65.28
2023-04-15T08:38:47.182Z,63.34
2023-04-15T08:43:54.362Z,60.21
2023-04-15T08:48:59.887Z,57.19
2023-04-15T08:54:03.472Z,58.81
2023-04-15T08:59:06.501Z,58.68
2023-04-15T09:04:12.729Z,57.25
2023-04-15T09:09:16.680Z,56.84
2023-04-15T09:14:19.643Z,54.94
2023-04-15T09:19:24.674Z,53.59
2023-04-15T09:24:37.741Z,53.42
2023-04-15T09:29:42.670Z,54.15
2023-04-15T09:34:46.854Z,53.17
2023-04-15T09:39:51.158Z,54.03
2023-04-15T09:44:55.389Z,53.81
2023-04-15T09:50:00.644Z,55.11
2023-04-15T09:55:04.414Z,55.08
2023-04-15T10:00:11.681Z,56.71
2023-04-15T10:05:18.535Z,55.79
2023-04-15T10:10:21.794Z,54.93
2023-04-15T10:15:25.757Z,55.71
2023-04-15T10:20:30.528Z,55.10
2023-04-15T10:25:34.749Z,55.11
2023-04-15T10:30:37.689Z,56.53
2023-04-15T10:35:43.081Z,56.43
2023-04-15T10:40:47.884Z,57.26
2023-04-15T10:45:50.645Z,57.88
2023-04-15T10:50:58.988Z,58.46
2023-04-15T10:56:01.771Z,59.62
2023-04-15T11:01:04.543Z,59.35
2023-04-15T11:06:09.722Z,61.13
2023-04-15T11:11:12.583Z,62.67
2023-04-15T11:16:15.514Z,60.72
2023-04-15T11:21:21.136Z,63.42
2023-04-15T11:26:28.122Z,61.66
2023-04-15T11:31:30.942Z,61.65
2023-04-15T11:36:35.365Z,61.33
2023-04-15T11:41:38.372Z,59.61
2023-04-15T11:46:41.081Z,61.26
2023-04-15T11:51:46.241Z,61.03
2023-04-15T11:56:52.205Z,63.88
2023-04-15T12:01:55.036Z,66.31
2023-04-15T12:07:06.622Z,68.17
2023-04-15T12:12:11.800Z,68.83
2023-04-15T12:17:15.514Z,71.61
2023-04-15T12:22:20.166Z,73.17
2023-04-15T12:27:29.890Z,74.80
2023-04-15T12:32:37.430Z,77.47
2023-04-15T12:37:41.819Z,76.93
2023-04-15T12:42:44.733Z,78.48
2023-04-15T12:47:49.118Z,79.05
2023-04-15T12:52:53.277Z,82.74
2023-04-15T12:57:56.064Z,88.55
2023-04-15T13:02:58.839Z,95.52
2023-04-15T13:08:03.031Z,97.09
2023-04-15T13:13:08.315Z,99.54
2023-04-15T13:18:11.130Z,100.00
2023-04-15T13:23:17.182Z,100.00
2023-04-15T13:28:20.449Z,100.00
2023-04-15T13:33:23.300Z,100.00
2023-04-15T13:38:27.532Z,100.00
2023-04-15T13:43:30.612Z,100.00
2023-04-15T13:48:33.622Z,100.00
2023-04-15T13:53:39.730Z,100.00
2023-04-15T13:58:42.629Z,100.00
2023-04-15T14:03:45.722Z,100.00
2023-04-15T14:08:50.373Z,100.00
2023-04-15T14:13:55.060Z,100.00
2023-04-15T14:18:57.991Z,100.00
2023-04-15T14:24:02.216Z,100.00
2023-04-15T14:29:05.563Z,100.00
2023-04-15T14:34:09.159Z,100.00
2023-04-15T14:39:15.327Z,100.00
2023-04-15T14:44:18.633Z,100.00
2023-04-15T14:49:21.576Z,100.00
2023-04-15T14:54:25.791Z,100.00
2023-04-15T14:59:28.595Z,100.00
2023-04-15T15:04:33.402Z,100.00
2023-04-15T15:09:37.604Z,100.00
2023-04-15T15:14:40.647Z,100.00
2023-04-15T15:19:43.476Z,100.00
2023-04-15T15:24:47.537Z,100.00
2023-04-15T15:29:52.666Z,100.00
2023-04-15T15:34:55.590Z,100.00
2023-04-15T15:40:00.793Z,100.00
2023-04-15T15:45:05.974Z,100.00
2023-04-15T15:50:09.983Z,100.00
2023-04-15T15:55:15.011Z,100.00
2023-04-15T16:00:18.324Z,100.00
2023-04-15T16:05:21.086Z,100.00
2023-04-15T16:10:25.337Z,100.00
2023-04-15T16:15:28.179Z,100.00
2023-04-15T16:20:32.043Z,100.00
2023-04-15T16:25:36.281Z,100.00
2023-04-15T16:30:39.733Z,100.00
2023-04-15T16:35:42.496Z,100.00
2023-04-15T16:40:47.000Z,100.00
2023-04-15T16:45:51.416Z,100.00
2023-04-15T16:50:54.514Z,100.00
2023-04-15T16:55:58.657Z,100.00
2023-04-15T17:01:01.571Z,100.00
2023-04-15T17:06:04.447Z,100.00
2023-04-15T17:11:08.589Z,100.00
2023-04-15T17:16:11.574Z,100.00
2023-04-15T17:21:15.252Z,100.00
2023-04-15T17:26:20.054Z,100.00
2023-04-15T17:31:23.178Z,100.00
2023-04-15T17:36:26.780Z,100.00
2023-04-15T17:41:31.022Z,100.00
2023-04-15T17:46:33.911Z,100.00
2023-04-15T17:51:36.766Z,100.00
2023-04-15T17:56:44.674Z,100.00
2023-04-15T18:01:48.224Z,100.00
2023-04-15T18:06:52.652Z,100.00
2023-04-15T18:11:57.362Z,100.00
2023-04-15T18:17:00.520Z,100.00
2023-04-15T18:22:03.976Z,100.00
2023-04-15T18:27:08.271Z,100.00
2023-04-15T18:32:11.525Z,100.00
2023-04-15T18:37:14.675Z,100.00
2023-04-15T18:42:18.765Z,100.00
2023-04-15T18:47:21.989Z,100.00
2023-04-15T18:52:24.800Z,100.00
2023-04-15T18:57:33.190Z,100.00
2023-04-15T19:02:38.226Z,100.00
2023-04-15T19:07:41.125Z,100.00
2023-04-15T19:12:46.106Z,100.00
2023-04-15T19:17:49.039Z,100.00
2023-04-15T19:22:52.034Z,100.00
2023-04-15T19:27:57.469Z,100.00
2023-04-15T19:33:01.335Z,100.00
2023-04-15T19:38:04.405Z,100.00
2023-04-15T19:43:08.563Z,100.00
2023-04-15T19:48:11.344Z,100.00
2023-04-15T19:53:14.168Z,100.00
2023-04-15T19:58:18.461Z,100.00
2023-04-15T20:03:21.952Z,100.00
2023-04-15T20:08:25.170Z,100.00
2023-04-15T20:13:29.392Z,100.00
2023-04-15T20:18:32.227Z,100.00
2023-04-15T20:23:35.943Z,100.00
2023-04-15T20:28:40.239Z,100.00
2023-04-15T20:33:43.124Z,100.00
2023-04-15T20:38:45.978Z,100.00
2023-04-15T20:43:50.378Z,100.00
2023-04-15T20:48:53.216Z,100.00
2023-04-15T20:53:56.211Z,100.00
2023-04-15T20:59:01.065Z,100.00
2023-04-15T21:04:03.886Z,100.00
2023-04-15T21:09:07.058Z,100.00
2023-04-15T21:14:12.273Z,100.00
2023-04-15T21:19:15.828Z,100.00
2023-04-15T21:24:18.513Z,100.00
2023-04-15T21:29:23.291Z,100.00
2023-04-15T21:34:25.971Z,100.00
2023-04-15T21:39:30.223Z,100.00
2023-04-15T21:44:34.307Z,100.00
2023-04-15T21:49:37.036Z,100.00
2023-04-15T21:54:40.388Z,100.00
2023-04-15T21:59:45.151Z,100.00
2023-04-15T22:04:48.374Z,100.00
2023-04-15T22:09:51.508Z,100.00
2023-04-15T22:14:56.888Z,100.00
2023-04-15T22:19:59.776Z,100.00
2023-04-15T22:25:02.566Z,100.00
2023-04-15T22:30:08.360Z,100.00
2023-04-15T22:35:11.158Z,100.00
2023-04-15T22:40:14.388Z,100.00
2023-04-15T22:45:19.252Z,100.00
2023-04-15T22:50:22.388Z,100.00
2023-04-15T22:55:25.194Z,100.00
2023-04-15T23:00:29.367Z,100.00
2023-04-15T23:05:32.282Z,100.00
2023-04-15T23:10:35.457Z,100.00
2023-04-15T23:15:39.589Z,100.00
2023-04-15T23:20:42.584Z,100.00
2023-04-15T23:25:45.444Z,100.00
2023-04-15T23:30:49.617Z,100.00
2023-04-15T23:35:52.342Z,100.00
2023-04-15T23:40:55.074Z,100.00
2023-04-15T23:45:59.150Z,100.00
2023-04-15T23:51:02.578Z,100.00
2023-04-15T23:56:06.719Z,100.00
